createdAt,value
2018-01-28T00:01:02.815Z,79.12
2018-01-28T00:02:02.748Z,78.93
2018-01-28T00:03:59.194Z,78.64
2018-01-28T00:04:59.198Z,78.36
2018-01-28T00:06:55.140Z,78.64
2018-01-28T00:07:54.620Z,78.55
2018-01-28T00:09:50.543Z,79.60
2018-01-28T00:10:51.091Z,78.74
2018-01-28T00:12:46.508Z,79.31
2018-01-28T00:13:46.482Z,78.93
2018-01-28T00:15:42.922Z,78.83
2018-01-28T00:16:42.955Z,78.93
2018-01-28T00:18:39.291Z,79.12
2018-01-28T00:19:38.868Z,79.12
2018-01-28T00:21:32.828Z,79.03
2018-01-28T00:22:32.806Z,79.12
2018-01-28T00:24:27.277Z,77.79
2018-01-28T00:25:27.239Z,78.17
2018-01-28T00:27:23.685Z,78.83
2018-01-28T00:28:23.694Z,78.83
2018-01-28T00:30:19.137Z,79.41
2018-01-28T00:31:19.107Z,80.07
2018-01-28T00:33:17.025Z,79.69
2018-01-28T00:34:17.025Z,80.55
2018-01-28T00:36:12.949Z,81.21
2018-01-28T00:37:12.943Z,81.68
2018-01-28T00:39:08.878Z,82.26
2018-01-28T00:40:08.868Z,82.54
2018-01-28T00:42:04.809Z,82.26
2018-01-28T00:43:04.835Z,83.11
2018-01-28T00:45:00.758Z,83.97
2018-01-28T00:46:00.728Z,84.25
2018-01-28T00:47:56.677Z,84.82
2018-01-28T00:48:56.662Z,85.01
2018-01-28T00:50:52.647Z,86.72
2018-01-28T00:51:52.622Z,87.57
2018-01-28T00:53:47.090Z,87.76
2018-01-28T00:54:47.579Z,87.57
2018-01-28T00:56:43.030Z,88.53
2018-01-28T00:57:42.980Z,88.62
2018-01-28T00:59:41.063Z,89.09
2018-01-28T01:00:41.049Z,89.95
2018-01-28T01:02:37.475Z,90.38
2018-01-28T01:03:36.964Z,90.76
2018-01-28T01:05:35.921Z,91.14
2018-01-28T01:06:35.882Z,91.52
2018-01-28T01:08:34.866Z,91.52
2018-01-28T01:09:34.837Z,91.52
2018-01-28T01:11:29.897Z,92.47
2018-01-28T01:12:31.375Z,92.94
2018-01-28T01:14:26.796Z,93.60
2018-01-28T01:15:25.781Z,94.08
2018-01-28T01:17:21.707Z,94.08
2018-01-28T01:18:21.702Z,94.46
2018-01-28T01:20:17.663Z,95.03
2018-01-28T01:21:18.150Z,95.03
2018-01-28T01:23:14.585Z,95.98
2018-01-28T01:24:14.116Z,95.22
2018-01-28T01:26:10.018Z,95.31
2018-01-28T01:27:09.483Z,95.79
2018-01-28T01:29:05.417Z,95.60
2018-01-28T01:30:05.418Z,95.79
2018-01-28T01:32:01.342Z,96.36
2018-01-28T01:33:01.323Z,96.17
2018-01-28T01:34:57.237Z,96.36
2018-01-28T01:35:57.229Z,96.36
2018-01-28T01:37:53.176Z,95.79
2018-01-28T01:38:53.158Z,96.36
2018-01-28T01:40:49.628Z,96.26
2018-01-28T01:41:49.093Z,96.17
2018-01-28T01:43:45.547Z,95.60
2018-01-28T01:44:45.046Z,95.98
2018-01-28T01:46:41.986Z,95.12
2018-01-28T01:47:41.002Z,94.84
2018-01-28T01:49:36.881Z,94.74
2018-01-28T01:50:36.864Z,95.22
2018-01-28T01:52:32.837Z,94.37
2018-01-28T01:53:32.859Z,94.56
2018-01-28T01:55:28.755Z,93.99
2018-01-28T01:56:28.742Z,94.46
2018-01-28T01:58:24.733Z,95.03
2018-01-28T01:59:25.216Z,94.84
2018-01-28T02:01:20.672Z,95.22
2018-01-28T02:02:20.628Z,94.93
2018-01-28T02:04:17.109Z,94.56
2018-01-28T02:05:16.554Z,94.46
2018-01-28T02:07:12.481Z,94.37
2018-01-28T02:08:12.498Z,94.08
2018-01-28T02:10:08.941Z,94.65
2018-01-28T02:11:08.423Z,94.18
2018-01-28T02:13:05.367Z,93.99
2018-01-28T02:14:04.343Z,94.74
2018-01-28T02:16:00.271Z,94.93
2018-01-28T02:17:00.813Z,95.12
2018-01-28T02:18:56.231Z,94.08
2018-01-28T02:19:56.397Z,94.46
2018-01-28T02:21:52.184Z,94.51
2018-01-28T02:22:52.149Z,93.99
2018-01-28T02:24:48.065Z,94.32
2018-01-28T02:25:48.064Z,94.32
2018-01-28T02:27:45.014Z,94.51
2018-01-28T02:28:44.027Z,94.13
2018-01-28T02:30:39.960Z,92.71
2018-01-28T02:31:40.467Z,92.04
2018-01-28T02:33:35.857Z,91.85
2018-01-28T02:34:36.371Z,91.75
2018-01-28T02:36:31.870Z,91.85
2018-01-28T02:37:31.809Z,91.56
2018-01-28T02:39:30.748Z,91.09
2018-01-28T02:40:29.917Z,91.09
2018-01-28T02:42:26.342Z,90.71
2018-01-28T02:43:25.805Z,90.42
2018-01-28T02:45:22.259Z,90.33
2018-01-28T02:46:22.279Z,90.33
2018-01-28T02:48:19.678Z,89.67
2018-01-28T02:49:20.599Z,89.67
2018-01-28T02:51:15.581Z,90.05
2018-01-28T02:52:17.094Z,90.33
2018-01-28T02:54:12.040Z,89.76
2018-01-28T02:55:11.546Z,89.14
2018-01-28T02:57:09.479Z,89.00
2018-01-28T02:58:09.952Z,89.71
2018-01-28T03:00:08.387Z,89.42
2018-01-28T03:01:07.887Z,89.61
2018-01-28T03:03:05.301Z,88.67
2018-01-28T03:04:05.289Z,89.42
2018-01-28T03:06:03.226Z,89.33
2018-01-28T03:07:03.778Z,89.42
2018-01-28T03:09:02.703Z,89.04
2018-01-28T03:10:01.270Z,89.04
2018-01-28T03:11:59.738Z,88.57
2018-01-28T03:12:59.200Z,88.85
2018-01-28T03:14:58.128Z,87.62
2018-01-28T03:15:58.128Z,88.09
2018-01-28T03:17:53.667Z,88.09
2018-01-28T03:18:53.158Z,88.47
2018-01-28T03:20:51.594Z,88.38
2018-01-28T03:21:51.066Z,88.09
2018-01-28T03:23:48.540Z,88.85
2018-01-28T03:24:47.009Z,88.38
2018-01-28T03:26:45.994Z,88.47
2018-01-28T03:27:45.055Z,88.09
2018-01-28T03:29:43.030Z,88.38
2018-01-28T03:30:43.531Z,88.28
2018-01-28T03:32:41.067Z,88.09
2018-01-28T03:33:41.023Z,88.38
2018-01-28T03:35:39.494Z,87.71
2018-01-28T03:36:39.023Z,88.09
2018-01-28T03:38:37.905Z,89.04
2018-01-28T03:39:37.906Z,88.76
2018-01-28T03:41:35.475Z,88.85
2018-01-28T03:42:34.912Z,89.23
2018-01-28T03:44:33.866Z,89.90
2018-01-28T03:45:32.841Z,89.61
2018-01-28T03:47:30.802Z,89.23
2018-01-28T03:48:31.307Z,90.09
2018-01-28T03:50:28.735Z,90.28
2018-01-28T03:51:30.718Z,90.00
2018-01-28T03:53:26.669Z,89.71
2018-01-28T03:54:26.678Z,90.00
2018-01-28T03:56:22.630Z,90.47
2018-01-28T03:57:23.115Z,90.19
2018-01-28T03:59:20.560Z,90.19
2018-01-28T04:00:20.533Z,90.09
2018-01-28T04:02:19.008Z,90.94
2018-01-28T04:03:18.451Z,90.56
2018-01-28T04:05:14.396Z,90.85
2018-01-28T04:08:10.859Z,90.85
2018-01-28T04:09:10.796Z,91.33
2018-01-28T04:11:06.751Z,91.61
2018-01-28T04:12:06.233Z,90.89
2018-01-28T04:14:02.706Z,91.28
2018-01-28T04:15:02.720Z,91.33
2018-01-28T04:16:58.128Z,91.28
2018-01-28T04:17:58.101Z,91.47
2018-01-28T04:19:56.058Z,91.33
2018-01-28T04:20:56.032Z,90.56
2018-01-28T04:22:55.001Z,90.85
2018-01-28T04:23:54.092Z,91.04
2018-01-28T04:25:50.551Z,91.18
2018-01-28T04:26:50.012Z,91.71
2018-01-28T04:28:48.072Z,91.37
2018-01-28T04:29:48.977Z,91.08
2018-01-28T04:31:43.993Z,91.28
2018-01-28T04:32:43.965Z,91.28
2018-01-28T04:34:42.433Z,91.47
2018-01-28T04:35:42.030Z,91.18
2018-01-28T04:37:41.496Z,90.99
2018-01-28T04:38:40.987Z,90.89
2018-01-28T04:40:36.055Z,91.18
2018-01-28T04:41:36.020Z,90.70
2018-01-28T04:43:31.997Z,91.18
2018-01-28T04:44:32.470Z,90.89
2018-01-28T04:46:28.396Z,90.52
2018-01-28T04:47:27.878Z,90.89
2018-01-28T04:49:26.371Z,90.52
2018-01-28T04:50:25.821Z,90.80
2018-01-28T04:52:24.784Z,89.94
2018-01-28T04:53:24.775Z,89.85
2018-01-28T04:55:19.824Z,89.66
2018-01-28T04:56:20.805Z,89.75
2018-01-28T04:58:15.746Z,89.85
2018-01-28T04:59:15.744Z,90.23
2018-01-28T05:01:12.207Z,89.85
2018-01-28T05:02:11.672Z,89.94
2018-01-28T05:04:08.174Z,89.94
2018-01-28T05:05:08.632Z,90.14
2018-01-28T05:07:06.116Z,89.09
2018-01-28T05:08:05.756Z,89.85
2018-01-28T05:10:03.788Z,89.18
2018-01-28T05:11:04.671Z,89.09
2018-01-28T05:13:02.251Z,89.75
2018-01-28T05:14:01.694Z,90.52
2018-01-28T05:15:59.672Z,91.28
2018-01-28T05:17:00.136Z,91.08
2018-01-28T05:18:58.106Z,92.32
2018-01-28T05:19:58.121Z,93.08
2018-01-28T05:21:56.501Z,93.18
2018-01-28T05:22:56.525Z,93.37
2018-01-28T05:24:53.515Z,93.18
2018-01-28T05:25:54.034Z,93.65
2018-01-28T05:27:51.567Z,93.65
2018-01-28T05:28:53.488Z,93.27
2018-01-28T05:30:50.512Z,93.27
2018-01-28T05:31:49.607Z,92.99
2018-01-28T05:33:47.570Z,92.51
2018-01-28T05:34:48.053Z,93.27
2018-01-28T05:36:43.479Z,92.99
2018-01-28T05:37:43.972Z,93.08
2018-01-28T05:39:41.403Z,93.37
2018-01-28T05:40:41.924Z,93.84
2018-01-28T05:42:39.351Z,93.94
2018-01-28T05:43:39.327Z,93.55
2018-01-28T05:45:36.271Z,93.94
2018-01-28T05:46:35.286Z,94.22
2018-01-28T05:48:31.730Z,94.60
2018-01-28T05:49:31.179Z,94.13
2018-01-28T05:51:29.123Z,94.79
2018-01-28T05:52:29.108Z,94.98
2018-01-28T05:54:25.080Z,95.56
2018-01-28T05:55:25.054Z,95.17
2018-01-28T05:57:22.972Z,95.36
2018-01-28T05:58:24.514Z,95.36
2018-01-28T06:00:19.436Z,95.36
2018-01-28T06:01:19.478Z,96.03
2018-01-28T06:03:16.866Z,96.12
2018-01-28T06:04:16.849Z,96.26
2018-01-28T06:06:14.827Z,96.31
2018-01-28T06:07:15.303Z,96.74
2018-01-28T06:09:10.721Z,96.65
2018-01-28T06:10:10.712Z,96.89
2018-01-28T06:12:09.175Z,96.84
2018-01-28T06:13:08.764Z,96.55
2018-01-28T06:15:06.204Z,96.79
2018-01-28T06:16:06.196Z,96.41
2018-01-28T06:18:02.136Z,95.84
2018-01-28T06:19:01.611Z,95.56
2018-01-28T06:21:00.566Z,95.17
2018-01-28T06:21:59.713Z,95.17
2018-01-28T06:23:57.742Z,94.89
2018-01-28T06:24:58.630Z,94.42
2018-01-28T06:26:56.686Z,94.13
2018-01-28T06:27:56.179Z,93.65
2018-01-28T06:29:53.642Z,94.13
2018-01-28T06:30:54.126Z,93.75
2018-01-28T06:32:49.591Z,93.55
2018-01-28T06:33:49.560Z,93.37
2018-01-28T06:35:45.985Z,93.08
2018-01-28T06:36:45.481Z,92.89
2018-01-28T06:38:43.515Z,92.70
2018-01-28T06:39:43.518Z,92.70
2018-01-28T06:41:39.497Z,92.89
2018-01-28T06:42:39.985Z,92.70
2018-01-28T06:44:37.903Z,92.32
2018-01-28T06:45:37.912Z,92.51
2018-01-28T06:47:35.817Z,92.51
2018-01-28T06:48:36.245Z,93.18
2018-01-28T06:50:31.259Z,92.70
2018-01-28T06:51:31.245Z,92.32
2018-01-28T06:53:28.187Z,91.94
2018-01-28T06:54:27.202Z,92.03
2018-01-28T06:56:23.647Z,92.03
2018-01-28T06:57:23.636Z,92.03
2018-01-28T06:59:20.068Z,91.56
2018-01-28T07:00:19.575Z,91.66
2018-01-28T07:02:15.028Z,91.51
2018-01-28T07:03:14.997Z,91.66
2018-01-28T07:05:14.942Z,91.89
2018-01-28T07:06:13.038Z,91.80
2018-01-28T07:08:10.960Z,91.51
2018-01-28T07:09:11.495Z,91.61
2018-01-28T07:11:07.914Z,91.85
2018-01-28T07:12:07.415Z,91.70
2018-01-28T07:14:05.876Z,91.32
2018-01-28T07:15:05.348Z,91.99
2018-01-28T07:17:03.294Z,91.70
2018-01-28T07:18:03.705Z,91.32
2018-01-28T07:19:58.738Z,91.61
2018-01-28T07:20:58.739Z,91.70
2018-01-28T07:22:56.783Z,91.51
2018-01-28T07:23:56.789Z,91.61
2018-01-28T07:25:52.733Z,91.22
2018-01-28T07:26:52.745Z,91.13
2018-01-28T07:28:52.189Z,91.80
2018-01-28T07:29:52.185Z,91.61
2018-01-28T07:31:47.904Z,91.22
2018-01-28T07:32:47.914Z,91.89
2018-01-28T07:34:43.346Z,91.51
2018-01-28T07:35:43.324Z,91.99
2018-01-28T07:37:39.276Z,91.13
2018-01-28T07:38:39.245Z,91.70
2018-01-28T07:40:37.719Z,91.32
2018-01-28T07:41:37.284Z,91.61
2018-01-28T07:43:33.735Z,91.61
2018-01-28T07:44:33.241Z,91.13
2018-01-28T07:46:29.177Z,91.42
2018-01-28T07:47:29.197Z,91.89
2018-01-28T07:49:30.629Z,91.89
2018-01-28T07:50:30.126Z,91.89
2018-01-28T07:52:24.048Z,91.80
2018-01-28T07:53:24.049Z,91.99
2018-01-28T07:55:20.017Z,92.08
2018-01-28T07:56:19.987Z,91.80
2018-01-28T07:58:16.492Z,92.27
2018-01-28T07:59:15.920Z,92.27
2018-01-28T08:01:11.886Z,92.36
2018-01-28T08:02:11.846Z,92.08
2018-01-28T08:04:09.797Z,91.70
2018-01-28T08:05:09.793Z,91.61
2018-01-28T08:07:08.248Z,91.70
2018-01-28T08:08:07.845Z,91.13
2018-01-28T08:10:07.307Z,91.70
2018-01-28T08:11:05.800Z,91.70
2018-01-28T08:13:03.767Z,91.80
2018-01-28T08:14:03.729Z,91.61
2018-01-28T08:16:01.697Z,91.51
2018-01-28T08:17:02.177Z,91.51
2018-01-28T08:18:59.584Z,91.89
2018-01-28T08:20:00.112Z,92.08
2018-01-28T08:21:56.570Z,91.03
2018-01-28T08:22:55.527Z,91.80
2018-01-28T08:25:02.488Z,91.80
2018-01-28T08:26:02.450Z,92.08
2018-01-28T08:27:59.398Z,91.03
2018-01-28T08:28:58.456Z,90.94
2018-01-28T08:30:56.903Z,91.22
2018-01-28T08:31:56.519Z,91.13
2018-01-28T08:33:52.421Z,91.22
2018-01-28T08:34:52.444Z,91.42
2018-01-28T08:36:50.466Z,91.27
2018-01-28T08:37:50.457Z,91.08
2018-01-28T08:39:46.928Z,90.84
2018-01-28T08:40:46.429Z,91.17
2018-01-28T08:42:43.272Z,91.27
2018-01-28T08:43:42.854Z,90.89
2018-01-28T08:45:38.279Z,90.80
2018-01-28T08:46:38.295Z,90.51
2018-01-28T08:48:34.211Z,90.61
2018-01-28T08:49:34.196Z,90.61
2018-01-28T08:51:32.671Z,90.70
2018-01-28T08:52:33.157Z,90.51
2018-01-28T08:54:30.185Z,90.51
2018-01-28T08:55:30.170Z,90.42
2018-01-28T08:57:28.133Z,90.42
2018-01-28T08:58:28.102Z,90.42
2018-01-28T09:00:26.042Z,90.42
2018-01-28T09:01:26.033Z,90.22
2018-01-28T09:03:22.487Z,90.13
2018-01-28T09:04:21.961Z,90.03
2018-01-28T09:06:18.921Z,90.03
2018-01-28T09:07:17.906Z,90.03
2018-01-28T09:09:15.878Z,90.61
2018-01-28T09:10:16.360Z,90.22
2018-01-28T09:12:15.330Z,90.03
2018-01-28T09:13:13.966Z,89.84
2018-01-28T09:15:13.332Z,89.75
2018-01-28T09:16:12.820Z,89.56
2018-01-28T09:18:08.395Z,89.94
2018-01-28T09:19:08.374Z,89.94
2018-01-28T09:21:08.351Z,90.61
2018-01-28T09:22:08.839Z,90.42
2018-01-28T09:24:04.811Z,89.75
2018-01-28T09:25:04.237Z,90.03
2018-01-28T09:27:00.164Z,90.32
2018-01-28T09:28:00.178Z,90.13
2018-01-28T09:29:56.663Z,90.42
2018-01-28T09:30:56.126Z,89.84
2018-01-28T09:32:52.089Z,89.84
2018-01-28T09:33:52.565Z,90.32
2018-01-28T09:35:48.497Z,89.94
2018-01-28T09:36:47.996Z,89.37
2018-01-28T09:38:46.065Z,90.22
2018-01-28T09:39:46.030Z,90.03
2018-01-28T09:41:45.961Z,89.56
2018-01-28T09:42:43.936Z,88.79
2018-01-28T09:44:42.891Z,88.70
2018-01-28T09:45:42.390Z,88.89
2018-01-28T09:47:38.830Z,89.61
2018-01-28T09:48:37.887Z,89.47
2018-01-28T09:50:34.770Z,88.99
2018-01-28T09:51:33.837Z,88.79
2018-01-28T09:53:32.214Z,88.79
2018-01-28T09:54:30.315Z,88.89
2018-01-28T09:56:29.920Z,88.79
2018-01-28T09:57:25.787Z,88.79
2018-01-28T09:59:22.657Z,89.08
2018-01-28T10:00:21.815Z,88.89
2018-01-28T10:02:22.266Z,88.65
2018-01-28T10:03:17.968Z,88.56
2018-01-28T10:05:16.859Z,88.65
2018-01-28T10:06:15.846Z,88.56
2018-01-28T10:08:13.297Z,88.56
2018-01-28T10:09:12.033Z,88.56
2018-01-28T10:11:08.512Z,88.37
2018-01-28T10:12:07.988Z,88.32
2018-01-28T10:14:05.938Z,88.60
2018-01-28T10:15:06.438Z,88.32
2018-01-28T10:17:04.883Z,88.27
2018-01-28T10:18:03.892Z,88.37
2018-01-28T10:20:03.479Z,88.75
2018-01-28T10:21:02.853Z,88.37
2018-01-28T10:23:05.059Z,88.65
2018-01-28T10:23:57.958Z,88.27
2018-01-28T10:25:57.427Z,88.27
2018-01-28T10:26:56.007Z,88.46
2018-01-28T10:28:54.490Z,87.89
2018-01-28T10:29:54.961Z,88.56
2018-01-28T10:31:52.512Z,88.46
2018-01-28T10:32:51.985Z,88.65
2018-01-28T10:34:49.975Z,87.98
2018-01-28T10:35:50.113Z,88.27
2018-01-28T10:37:47.883Z,87.79
2018-01-28T10:38:47.849Z,88.27
2018-01-28T10:40:49.316Z,87.79
2018-01-28T10:41:49.314Z,87.98
2018-01-28T10:43:58.795Z,87.89
2018-01-28T10:44:58.817Z,87.70
2018-01-28T10:46:53.988Z,87.79
2018-01-28T10:47:54.014Z,87.41
2018-01-28T10:49:49.974Z,87.51
2018-01-28T10:50:49.936Z,87.70
2018-01-28T10:52:45.914Z,87.70
2018-01-28T10:53:46.392Z,87.51
2018-01-28T10:55:41.873Z,87.13
2018-01-28T10:56:41.819Z,87.70
2018-01-28T10:58:37.793Z,87.60
2018-01-28T10:59:37.790Z,87.32
2018-01-28T11:01:33.745Z,87.23
2018-01-28T11:02:33.720Z,87.03
2018-01-28T11:04:32.225Z,87.70
2018-01-28T11:05:30.184Z,87.70
2018-01-28T11:07:28.653Z,87.03
2018-01-28T11:08:27.958Z,87.32
2018-01-28T11:10:27.446Z,86.94
2018-01-28T11:11:26.016Z,86.36
2018-01-28T11:13:23.986Z,86.79
2018-01-28T11:14:23.946Z,86.41
2018-01-28T11:16:22.901Z,86.22
2018-01-28T11:17:22.011Z,86.03
2018-01-28T11:19:17.972Z,86.22
2018-01-28T11:20:17.944Z,85.93
2018-01-28T11:22:14.878Z,85.93
2018-01-28T11:23:14.417Z,86.03
2018-01-28T11:25:11.780Z,85.84
2018-01-28T11:26:11.889Z,86.22
2018-01-28T11:28:08.269Z,86.22
2018-01-28T11:29:07.726Z,86.12
2018-01-28T11:31:03.717Z,85.84
2018-01-28T11:32:03.677Z,85.36
2018-01-28T11:33:59.671Z,85.17
2018-01-28T11:35:00.149Z,84.60
2018-01-28T11:36:55.603Z,84.31
2018-01-28T11:37:56.092Z,84.41
2018-01-28T11:39:55.024Z,84.50
2018-01-28T11:40:54.522Z,84.03
2018-01-28T11:42:52.595Z,85.17
2018-01-28T11:43:51.595Z,85.46
2018-01-28T11:45:50.064Z,85.36
2018-01-28T11:46:49.530Z,85.55
2018-01-28T11:48:47.495Z,85.17
2018-01-28T11:49:47.989Z,85.27
2018-01-28T11:51:45.940Z,84.98
2018-01-28T11:52:45.922Z,84.98
2018-01-28T11:54:44.329Z,84.31
2018-01-28T11:55:43.833Z,84.31
2018-01-28T11:57:40.788Z,83.65
2018-01-28T11:58:39.797Z,84.50
2018-01-28T12:00:37.265Z,84.31
2018-01-28T12:01:37.717Z,83.93
2018-01-28T12:03:33.147Z,84.31
2018-01-28T12:04:33.664Z,84.12
2018-01-28T12:06:31.024Z,84.69
2018-01-28T12:07:29.108Z,83.65
2018-01-28T12:09:27.171Z,84.03
2018-01-28T12:10:28.059Z,84.60
2018-01-28T12:12:25.619Z,83.74
2018-01-28T12:13:25.607Z,83.65
2018-01-28T12:15:22.038Z,83.45
2018-01-28T12:16:21.016Z,83.84
2018-01-28T12:18:20.496Z,83.40
2018-01-28T12:19:19.490Z,83.59
2018-01-28T12:21:15.927Z,83.02
2018-01-28T12:22:14.933Z,82.92
2018-01-28T12:24:11.375Z,82.73
2018-01-28T12:25:10.853Z,82.64
2018-01-28T12:27:10.304Z,82.92
2018-01-28T12:28:09.810Z,82.54
2018-01-28T12:30:04.894Z,82.26
2018-01-28T12:33:02.848Z,81.02
2018-01-28T12:34:03.306Z,81.59
2018-01-28T12:36:00.786Z,81.40
2018-01-28T12:37:00.769Z,81.68
2018-01-28T12:39:00.227Z,81.02
2018-01-28T12:39:58.839Z,80.77
2018-01-28T12:41:57.453Z,80.35
2018-01-28T12:42:56.880Z,80.39
2018-01-28T12:44:53.345Z,80.77
2018-01-28T12:45:52.833Z,80.49
2018-01-28T12:47:48.813Z,80.30
2018-01-28T12:48:48.778Z,80.11
2018-01-28T12:50:43.266Z,79.72
2018-01-28T12:51:43.733Z,80.01
2018-01-28T12:53:38.696Z,80.01
2018-01-28T12:54:37.672Z,80.01
2018-01-28T12:56:34.145Z,79.63
2018-01-28T12:57:33.610Z,79.91
2018-01-28T12:59:29.006Z,79.82
2018-01-28T13:00:28.057Z,80.20
2018-01-28T13:02:25.021Z,79.25
2018-01-28T13:03:23.988Z,78.77
2018-01-28T13:05:23.018Z,79.25
2018-01-28T13:06:23.530Z,79.25
2018-01-28T13:08:22.135Z,77.91
2018-01-28T13:09:22.303Z,77.72
2018-01-28T13:16:56.892Z,77.91
2018-01-28T13:17:56.857Z,77.44
2018-01-28T13:19:54.837Z,77.06
2018-01-28T13:20:54.828Z,76.67
2018-01-28T13:22:52.278Z,76.86
2018-01-28T13:25:47.805Z,77.15
2018-01-28T13:26:47.299Z,77.53
2018-01-28T13:28:44.778Z,77.15
2018-01-28T13:29:44.770Z,76.77
2018-01-28T13:31:40.747Z,77.15
2018-01-28T13:32:40.711Z,77.25
2018-01-28T13:34:35.175Z,76.48
2018-01-28T13:35:35.665Z,76.10
2018-01-28T13:37:31.123Z,76.10
2018-01-28T13:38:31.067Z,76.20
2018-01-28T13:40:27.516Z,76.20
2018-01-28T13:41:25.616Z,76.01
2018-01-28T13:43:21.531Z,76.10
2018-01-28T13:44:22.056Z,76.67
2018-01-28T13:46:18.509Z,75.91
2018-01-28T13:47:17.472Z,76.29
2018-01-28T13:49:13.415Z,76.39
2018-01-28T13:50:13.417Z,76.67
2018-01-28T13:52:09.366Z,76.67
2018-01-28T13:53:09.357Z,76.77
2018-01-28T13:55:07.909Z,76.10
2018-01-28T13:56:05.311Z,75.81
2018-01-28T13:58:01.261Z,76.01
2018-01-28T13:59:01.272Z,76.10
2018-01-28T14:00:59.227Z,76.10
2018-01-28T14:01:59.195Z,76.10
2018-01-28T14:03:55.193Z,76.57
2018-01-28T14:04:55.655Z,76.86
2018-01-28T14:06:51.076Z,76.67
2018-01-28T14:07:51.084Z,76.96
2018-01-28T14:09:47.524Z,76.39
2018-01-28T14:10:47.524Z,76.67
2018-01-28T14:12:43.466Z,76.48
2018-01-28T14:13:42.976Z,76.96
2018-01-28T14:15:39.406Z,76.96
2018-01-28T14:16:38.925Z,77.15
2018-01-28T14:18:34.859Z,76.67
2018-01-28T14:19:34.860Z,76.77
2018-01-28T14:21:31.327Z,77.06
2018-01-28T14:22:30.828Z,77.25
2018-01-28T14:24:28.790Z,76.57
2018-01-28T14:25:28.777Z,77.25
2018-01-28T14:27:25.723Z,76.96
2018-01-28T14:28:24.713Z,77.06
2018-01-28T14:30:20.662Z,77.25
2018-01-28T14:31:22.163Z,77.06
2018-01-28T14:33:16.572Z,76.48
2018-01-28T14:35:32.497Z,76.86
2018-01-28T14:36:32.520Z,77.62
2018-01-28T14:38:28.482Z,77.15
2018-01-28T14:39:28.467Z,77.34
2018-01-28T14:41:26.425Z,77.34
2018-01-28T14:42:26.403Z,77.15
2018-01-28T14:44:24.865Z,77.06
2018-01-28T14:45:24.345Z,77.15
2018-01-28T14:47:20.411Z,76.67
2018-01-28T14:48:20.261Z,77.06
2018-01-28T14:50:18.258Z,77.25
2018-01-28T14:51:18.219Z,77.06
2018-01-28T14:53:14.227Z,77.53
2018-01-28T14:54:15.182Z,77.25
2018-01-28T14:56:11.709Z,76.67
2018-01-28T14:57:10.667Z,76.77
2018-01-28T14:59:06.129Z,76.77
2018-01-28T15:00:07.097Z,76.57
2018-01-28T15:02:02.594Z,77.15
2018-01-28T15:03:02.072Z,77.06
2018-01-28T15:04:58.068Z,77.15
2018-01-28T15:05:58.526Z,77.25
2018-01-28T15:07:53.942Z,76.77
2018-01-28T15:08:54.483Z,76.96
2018-01-28T15:10:49.921Z,77.06
2018-01-28T15:11:50.404Z,76.57
2018-01-28T15:13:47.845Z,77.25
2018-01-28T15:14:47.835Z,77.25
2018-01-28T15:16:43.831Z,77.62
2018-01-28T15:17:44.312Z,77.15
2018-01-28T15:19:42.253Z,76.96
2018-01-28T15:20:41.841Z,77.15
2018-01-28T15:22:37.831Z,77.25
2018-01-28T15:23:37.815Z,77.53
2018-01-28T15:25:33.737Z,77.34
2018-01-28T15:26:33.760Z,77.62
2018-01-28T15:28:29.745Z,77.25
2018-01-28T15:29:30.701Z,77.15
2018-01-28T15:31:25.681Z,77.53
2018-01-28T15:32:25.647Z,77.62
2018-01-28T15:34:24.599Z,77.91
2018-01-28T15:35:23.590Z,78.10
2018-01-28T15:37:19.574Z,78.10
2018-01-28T15:38:19.513Z,78.10
2018-01-28T15:40:18.475Z,78.10
2018-01-28T15:41:17.979Z,78.01
2018-01-28T15:43:13.447Z,78.01
2018-01-28T15:44:13.418Z,77.87
2018-01-28T15:46:12.422Z,78.67
2018-01-28T15:47:11.465Z,78.67
2018-01-28T15:49:08.931Z,78.67
2018-01-28T15:50:07.934Z,78.96
2018-01-28T15:52:05.351Z,79.06
2018-01-28T15:53:05.373Z,79.25
2018-01-28T15:55:01.327Z,79.35
2018-01-28T15:56:01.853Z,79.82
2018-01-28T15:57:57.254Z,79.53
2018-01-28T15:58:57.822Z,79.63
2018-01-28T16:00:56.729Z,79.91
2018-01-28T16:01:55.298Z,80.49
2018-01-28T16:03:56.254Z,80.39
2018-01-28T16:04:55.764Z,80.11
2018-01-28T16:06:54.733Z,80.58
2018-01-28T16:07:54.719Z,80.87
2018-01-28T16:09:51.790Z,81.15
2018-01-28T16:10:51.763Z,81.25
2018-01-28T16:12:49.727Z,80.96
2018-01-28T16:13:50.244Z,81.44
2018-01-28T16:15:46.655Z,82.20
2018-01-28T16:16:45.685Z,81.97
2018-01-28T16:18:44.629Z,82.17
2018-01-28T16:19:43.620Z,82.30
2018-01-28T16:21:41.657Z,82.20
2018-01-28T16:22:41.548Z,82.30
2018-01-28T16:24:40.027Z,82.30
2018-01-28T16:25:41.507Z,82.49
2018-01-28T16:27:38.504Z,82.59
2018-01-28T16:28:37.536Z,82.68
2018-01-28T16:30:35.590Z,83.06
2018-01-28T16:31:35.586Z,83.06
2018-01-28T16:33:33.561Z,83.16
2018-01-28T16:34:33.525Z,83.16
2018-01-28T16:36:31.971Z,83.35
2018-01-28T16:37:31.441Z,83.25
2018-01-28T16:39:29.401Z,83.44
2018-01-28T16:40:29.416Z,83.35
2018-01-28T16:42:25.377Z,83.88
2018-01-28T16:43:25.328Z,83.92
2018-01-28T16:45:24.301Z,83.59
2018-01-28T16:46:23.399Z,83.78
2018-01-28T16:48:19.373Z,83.69
2018-01-28T16:49:19.329Z,83.59
2018-01-28T16:51:15.803Z,83.69
2018-01-28T16:52:15.275Z,83.69
2018-01-28T16:54:13.241Z,84.45
2018-01-28T16:55:13.224Z,84.30
2018-01-28T16:57:11.686Z,84.45
2018-01-28T16:58:11.152Z,84.55
2018-01-28T17:00:08.093Z,84.64
2018-01-28T17:01:08.018Z,84.45
2018-01-28T17:03:04.045Z,84.74
2018-01-28T17:04:04.064Z,84.74
2018-01-28T17:06:01.230Z,84.55
2018-01-28T17:07:03.051Z,84.36
2018-01-28T17:08:57.093Z,84.26
2018-01-28T17:09:57.102Z,84.78
2018-01-28T17:11:53.024Z,84.40
2018-01-28T17:12:53.029Z,84.55
2018-01-28T17:14:53.480Z,84.40
2018-01-28T17:15:53.480Z,84.40
2018-01-28T17:17:51.567Z,84.49
2018-01-28T17:18:52.433Z,84.49
2018-01-28T17:20:48.605Z,84.55
2018-01-28T17:21:47.452Z,84.11
2018-01-28T17:23:43.436Z,84.69
2018-01-28T17:24:43.424Z,84.36
2018-01-28T17:26:39.385Z,84.40
2018-01-28T17:27:39.883Z,84.64
2018-01-28T17:29:35.809Z,84.16
2018-01-28T17:30:35.302Z,85.12
2018-01-28T17:32:35.180Z,84.92
2018-01-28T17:33:33.346Z,85.02
2018-01-28T17:35:32.293Z,84.83
2018-01-28T17:36:31.319Z,84.92
2018-01-28T17:38:27.222Z,84.83
2018-01-28T17:39:27.747Z,84.92
2018-01-28T17:41:23.705Z,85.41
2018-01-28T17:42:23.688Z,85.21
2018-01-28T17:44:21.145Z,85.12
2018-01-28T17:45:19.631Z,85.12
2018-01-28T17:47:13.078Z,85.12
2018-01-28T17:48:12.542Z,86.07
2018-01-28T17:50:08.993Z,85.78
2018-01-28T17:51:08.492Z,85.88
2018-01-28T17:53:04.472Z,85.78
2018-01-28T17:54:04.947Z,85.88
2018-01-28T17:56:02.493Z,85.97
2018-01-28T17:57:03.378Z,85.69
2018-01-28T17:59:00.506Z,86.07
2018-01-28T18:00:00.518Z,85.60
2018-01-28T18:01:57.471Z,86.26
2018-01-28T18:02:57.503Z,86.26
2018-01-28T18:04:52.481Z,85.97
2018-01-28T18:05:52.466Z,85.78
2018-01-28T18:07:50.949Z,86.26
2018-01-28T18:08:51.415Z,86.74
2018-01-28T18:10:46.537Z,86.40
2018-01-28T18:11:46.981Z,87.12
2018-01-28T18:13:45.471Z,86.74
2018-01-28T18:14:45.412Z,86.74
2018-01-28T18:16:45.969Z,86.74
2018-01-28T18:17:44.938Z,86.83
2018-01-28T18:19:43.418Z,86.83
2018-01-28T18:20:42.875Z,86.74
2018-01-28T18:22:39.369Z,86.69
2018-01-28T18:23:38.823Z,86.65
2018-01-28T18:25:35.301Z,86.55
2018-01-28T18:26:34.796Z,86.55
2018-01-28T18:28:34.728Z,86.45
2018-01-28T18:29:32.731Z,86.36
2018-01-28T18:31:32.228Z,87.02
2018-01-28T18:32:30.806Z,86.65
2018-01-28T18:34:29.253Z,86.83
2018-01-28T18:35:28.732Z,86.74
2018-01-28T18:37:24.692Z,86.93
2018-01-28T18:38:24.675Z,87.60
2018-01-28T18:40:23.160Z,87.21
2018-01-28T18:41:23.216Z,87.02
2018-01-28T18:43:19.581Z,86.93
2018-01-28T18:44:18.685Z,87.02
2018-01-28T18:46:16.536Z,87.02
2018-01-28T18:47:17.071Z,87.21
2018-01-28T18:49:15.933Z,87.54
2018-01-28T18:50:14.595Z,87.40
2018-01-28T18:52:13.050Z,87.79
2018-01-28T18:53:13.038Z,87.50
2018-01-28T18:55:09.481Z,87.60
2018-01-28T18:56:08.472Z,87.79
2018-01-28T18:58:04.401Z,87.88
2018-01-28T18:59:04.926Z,87.79
2018-01-28T19:01:02.371Z,87.88
2018-01-28T19:02:02.398Z,87.79
2018-01-28T19:04:00.337Z,87.69
2018-01-28T19:05:00.338Z,87.69
2018-01-28T19:06:59.791Z,87.40
2018-01-28T19:07:58.335Z,87.21
2018-01-28T19:09:54.284Z,87.54